Time;durP1;ratioP1;P1;durP2;ratioP2;P2;SDS_P1;SDS_P2;PMS_P1;PMS_P2;Temp;Humidity;BMP_temperature;BMP_pressure;BME280_temperature;BME280_humidity;BME280_pressure;Samples;Min_cycle;Max_cycle;Signal;HPM_P1;HPM_P2
2023/05/01 00:00:23;;;;;;;;;27.50;27.00;;;;;14.10;77.18;101613.41;5097566;27;45273;-75
2023/05/01 00:02:48;;;;;;;;;26.75;23.00;;;;;14.04;77.50;101614.56;5095806;27;45364;-74
2023/05/01 00:05:14;;;;;;;;;30.50;27.25;;;;;13.93;78.04;101602.72;5096640;27;45463;-75
2023/05/01 00:07:39;;;;;;;;;32.33;26.67;;;;;13.95;77.97;101615.00;5090502;27;46023;-75
2023/05/01 00:10:06;;;;;;;;;30.25;24.00;;;;;13.89;78.65;101619.75;5082888;27;45458;-75
2023/05/01 00:12:31;;;;;;;;;30.50;28.00;;;;;13.82;78.45;101615.66;5093736;27;45512;-75
2023/05/01 00:14:56;;;;;;;;;31.75;30.75;;;;;13.78;78.72;101609.63;5081505;27;45405;-75
2023/05/01 00:17:22;;;;;;;;;29.00;27.00;;;;;13.74;79.15;101607.19;5091346;27;46024;-74
2023/05/01 00:19:53;;;;;;;;;31.25;30.25;;;;;13.68;79.13;101612.81;5090270;27;45515;-74
2023/05/01 00:22:19;;;;;;;;;30.00;29.75;;;;;13.63;79.64;101607.69;5099413;27;45341;-75
2023/05/01 00:24:46;;;;;;;;;36.00;29.33;;;;;13.58;79.70;101599.06;5103988;27;45402;-74
2023/05/01 00:27:12;;;;;;;;;32.00;29.50;;;;;13.51;80.10;101595.00;5092824;27;45962;-75
2023/05/01 00:29:37;;;;;;;;;33.00;29.25;;;;;13.49;80.25;101608.34;5101670;27;45435;-75
2023/05/01 00:32:04;;;;;;;;;29.00;28.00;;;;;13.48;81.09;101600.47;5092266;27;45393;-75
2023/05/01 00:34:29;;;;;;;;;34.00;30.25;;;;;13.40;79.69;101587.50;5096888;27;45611;-75
2023/05/01 00:36:55;;;;;;;;;28.00;26.75;;;;;13.45;80.87;101597.91;5098125;27;46063;-75
2023/05/01 00:39:20;;;;;;;;;31.25;23.75;;;;;13.41;81.10;101591.03;5084757;27;45254;-75
2023/05/01 00:41:46;;;;;;;;;29.50;29.50;;;;;13.37;80.69;101592.97;5097277;27;45388;-75
2023/05/01 00:44:11;;;;;;;;;29.00;28.25;;;;;13.32;80.86;101586.13;5103250;27;45444;-75
2023/05/01 00:46:37;;;;;;;;;34.50;28.75;;;;;13.32;80.64;101583.47;5098828;27;46166;-74
2023/05/01 00:49:03;;;;;;;;;36.75;31.75;;;;;13.05;81.00;101530.63;5099830;27;45403;-75
2023/05/01 00:51:30;;;;;;;;;31.75;30.25;;;;;13.24;80.99;101581.19;5090636;27;45316;-75
2023/05/01 00:53:58;;;;;;;;;36.00;33.75;;;;;13.04;80.68;101546.66;5094581;27;45278;-75
2023/05/01 00:56:25;;;;;;;;;33.75;30.00;;;;;13.14;81.40;101557.75;5088977;27;45478;-75
2023/05/01 00:58:53;;;;;;;;;27.25;26.00;;;;;13.17;80.48;101561.13;5086197;27;45487;-75
2023/05/01 01:01:20;;;;;;;;;31.00;28.25;;;;;13.21;80.79;101569.84;5093455;27;45360;-75
2023/05/01 01:03:46;;;;;;;;;31.75;28.50;;;;;13.24;78.71;101573.22;5093625;27;45474;-75
2023/05/01 01:06:16;;;;;;;;;30.33;26.67;;;;;13.27;79.12;101558.91;5095886;27;45479;-75
2023/05/01 01:08:48;;;;;;;;;25.00;23.75;;;;;13.25;81.38;101556.31;5089210;27;45463;-75
2023/05/01 01:11:20;;;;;;;;;27.50;24.00;;;;;13.31;80.49;101557.84;5093541;27;45424;-75
2023/05/01 01:14:12;;;;;;;;;29.50;28.25;;;;;13.32;78.99;101548.94;5093205;27;45353;-75
2023/05/01 01:16:40;;;;;;;;;26.75;22.25;;;;;13.31;79.77;101553.41;5089457;27;45310;-76
2023/05/01 01:19:08;;;;;;;;;30.50;28.75;;;;;13.29;79.33;101549.94;5096603;27;45492;-76
2023/05/01 01:21:48;;;;;;;;;28.25;26.00;;;;;13.25;79.39;101540.38;5093216;27;45515;-75
2023/05/01 01:24:42;;;;;;;;;32.50;29.25;;;;;13.23;79.19;101533.41;5096551;27;45418;-75
2023/05/01 01:27:14;;;;;;;;;29.25;28.75;;;;;13.28;79.57;101550.03;5094044;27;45952;-75
2023/05/01 01:29:58;;;;;;;;;27.75;24.25;;;;;13.23;79.79;101550.22;5088106;27;45399;-75
2023/05/01 01:32:31;;;;;;;;;28.50;28.50;;;;;13.23;79.50;101542.25;5095106;27;45410;-76
2023/05/01 01:35:03;;;;;;;;;28.00;25.75;;;;;13.21;79.79;101536.16;5085634;27;45562;-76
2023/05/01 01:37:58;;;;;;;;;32.00;27.50;;;;;13.19;79.91;101542.47;5097143;27;45510;-76
2023/05/01 01:40:31;;;;;;;;;30.75;27.75;;;;;12.95;79.75;101517.88;5079917;27;45596;-76
2023/05/01 01:43:07;;;;;;;;;31.00;25.75;;;;;13.15;80.28;101539.13;5089938;27;45428;-75
2023/05/01 01:45:40;;;;;;;;;32.25;28.25;;;;;12.90;79.94;101498.63;5099673;27;45531;-75
2023/05/01 01:48:10;;;;;;;;;30.75;29.50;;;;;13.09;80.72;101538.53;5081354;27;45379;-76
2023/05/01 01:50:37;;;;;;;;;28.75;27.00;;;;;13.05;81.24;101533.28;5091451;27;45533;-76
2023/05/01 01:53:05;;;;;;;;;32.50;26.50;;;;;13.03;81.17;101531.66;5097819;27;45349;-76
2023/05/01 01:55:33;;;;;;;;;31.75;30.00;;;;;13.03;81.19;101534.31;5089948;27;45459;-76
2023/05/01 01:58:01;;;;;;;;;20.50;19.75;;;;;13.01;81.26;101534.38;5090085;27;46413;-75
2023/05/01 02:00:28;;;;;;;;;33.75;24.00;;;;;12.98;82.06;101537.19;5099885;27;45529;-75
2023/05/01 02:02:57;;;;;;;;;28.75;27.50;;;;;13.00;81.22;101551.25;5086099;27;45455;-74
2023/05/01 02:05:25;;;;;;;;;32.50;27.00;;;;;12.96;82.00;101535.50;5083682;27;45397;-76
2023/05/01 02:07:51;;;;;;;;;25.75;23.75;;;;;12.95;81.37;101539.13;5087921;27;46273;-75
2023/05/01 02:10:18;;;;;;;;;23.75;21.00;;;;;12.90;82.02;101536.66;5096396;27;45331;-76
2023/05/01 02:12:47;;;;;;;;;24.75;24.75;;;;;12.90;81.39;101549.94;5100080;27;45449;-76
2023/05/01 02:15:15;;;;;;;;;26.75;25.00;;;;;12.70;81.52;101522.53;5101589;27;45317;-76
2023/05/01 02:17:41;;;;;;;;;40.75;27.25;;;;;12.83;81.79;101544.94;5088079;27;47356;-76
2023/05/01 02:20:11;;;;;;;;;26.75;24.25;;;;;12.81;81.33;101547.69;5098766;27;45374;-76
2023/05/01 02:22:39;;;;;;;;;29.33;27.00;;;;;12.77;82.06;101550.53;5096262;27;45308;-76
2023/05/01 02:25:09;;;;;;;;;24.50;22.00;;;;;12.80;82.35;101550.41;5089044;27;45580;-75
2023/05/01 02:27:37;;;;;;;;;22.33;20.00;;;;;12.77;81.57;101550.53;5084540;27;46333;-76
2023/05/01 02:30:04;;;;;;;;;23.00;22.75;;;;;12.78;81.79;101545.19;5084643;27;45396;-76
2023/05/01 02:32:30;;;;;;;;;28.00;23.33;;;;;12.74;82.82;101548.88;5090874;27;45370;-76
2023/05/01 02:34:56;;;;;;;;;22.75;21.50;;;;;12.72;81.26;101552.56;5088609;27;45289;-76
2023/05/01 02:37:21;;;;;;;;;22.75;21.25;;;;;12.69;81.88;101550.03;5091547;27;46778;-75
2023/05/01 02:39:47;;;;;;;;;26.00;20.00;;;;;12.68;83.24;101543.00;5088599;27;45369;-75
2023/05/01 02:42:15;;;;;;;;;25.50;23.50;;;;;12.67;83.24;101551.88;5097481;27;45288;-74
2023/05/01 02:44:55;;;;;;;;;22.75;20.75;;;;;12.62;81.97;101544.13;5097690;27;45448;-75
2023/05/01 02:47:22;;;;;;;;;21.33;19.67;;;;;12.61;82.35;101550.34;5087192;27;45345;-74
2023/05/01 02:49:50;;;;;;;;;23.75;20.25;;;;;12.51;81.84;101535.75;5097334;27;45424;-75
2023/05/01 02:52:18;;;;;;;;;20.33;19.33;;;;;12.53;82.41;101550.69;5087534;27;45255;-76
2023/05/01 02:54:44;;;;;;;;;24.50;24.50;;;;;12.52;82.28;101556.94;5095481;27;45423;-76
2023/05/01 02:57:10;;;;;;;;;22.75;20.75;;;;;12.50;82.82;101542.00;5099991;27;45257;-75
2023/05/01 02:59:36;;;;;;;;;26.50;22.00;;;;;12.50;82.85;101542.84;5089487;27;45455;-75
2023/05/01 03:02:01;;;;;;;;;26.25;25.00;;;;;12.43;83.27;101544.03;5091986;27;45393;-75
2023/05/01 03:04:27;;;;;;;;;24.00;21.75;;;;;12.45;83.51;101539.56;5093571;27;45427;-75
2023/05/01 03:06:53;;;;;;;;;24.25;20.00;;;;;12.39;83.61;101537.16;5089785;27;47049;-75
2023/05/01 03:09:19;;;;;;;;;22.67;22.00;;;;;12.42;83.87;101539.69;5093838;27;45481;-76
2023/05/01 03:11:45;;;;;;;;;24.50;24.00;;;;;12.41;83.60;101551.22;5098085;27;45290;-76
2023/05/01 03:14:11;;;;;;;;;21.25;21.25;;;;;12.39;84.34;101549.56;5100210;27;45422;-76
2023/05/01 03:16:36;;;;;;;;;25.25;22.75;;;;;12.36;84.03;101549.69;5096098;27;45988;-76
2023/05/01 03:19:01;;;;;;;;;27.50;24.25;;;;;12.35;84.45;101551.47;5112648;27;45232;-77
2023/05/01 03:21:27;;;;;;;;;24.00;21.67;;;;;12.34;84.93;101541.78;5093536;27;46633;-77
2023/05/01 03:23:53;;;;;;;;;27.00;24.25;;;;;12.31;84.07;101547.22;5100082;27;45191;-76
2023/05/01 03:26:18;;;;;;;;;26.25;23.50;;;;;12.28;84.35;101546.50;5100218;27;45203;-76
2023/05/01 03:28:44;;;;;;;;;24.25;22.00;;;;;12.24;84.45;101542.25;5097651;27;45296;-77
2023/05/01 03:31:09;;;;;;;;;27.00;24.00;;;;;12.23;85.40;101552.00;5099207;27;45400;-77
2023/05/01 03:33:34;;;;;;;;;24.50;24.50;;;;;11.99;85.49;101515.91;5086896;27;45346;-77
2023/05/01 03:36:02;;;;;;;;;30.25;30.00;;;;;12.19;85.80;101549.53;5096676;27;46231;-76
2023/05/01 03:38:31;;;;;;;;;30.75;28.50;;;;;12.18;85.82;101555.75;5083996;27;45583;-76
2023/05/01 03:40:57;;;;;;;;;29.00;26.00;;;;;12.17;85.84;101559.38;5096305;27;45258;-76
2023/05/01 03:43:24;;;;;;;;;33.25;29.25;;;;;12.16;86.52;101549.66;5095339;27;45432;-76
2023/05/01 03:45:50;;;;;;;;;31.00;29.50;;;;;12.14;86.95;101547.06;5096292;27;45865;-76
2023/05/01 03:48:16;;;;;;;;;26.00;24.50;;;;;12.08;87.30;101546.47;5098578;27;45817;-76
2023/05/01 03:50:41;;;;;;;;;28.00;27.50;;;;;12.12;87.56;101550.72;5094328;27;45470;-76
2023/05/01 03:53:07;;;;;;;;;31.25;28.25;;;;;12.10;87.42;101549.94;5083198;27;45348;-77
2023/05/01 03:55:32;;;;;;;;;32.50;28.75;;;;;12.11;87.59;101554.28;5095296;27;45311;-76
2023/05/01 03:57:58;;;;;;;;;41.00;34.00;;;;;12.12;87.87;101554.25;5100578;27;45387;-76
2023/05/01 04:00:23;;;;;;;;;36.25;30.75;;;;;12.12;88.75;101556.88;5094286;27;45462;-76
2023/05/01 04:02:49;;;;;;;;;36.00;32.25;;;;;12.07;88.44;101548.28;5079296;27;45314;-77
2023/05/01 04:05:14;;;;;;;;;40.00;34.50;;;;;11.91;88.35;101523.31;5081614;27;45334;-77
2023/05/01 04:07:40;;;;;;;;;37.25;32.75;;;;;12.10;88.78;101548.16;5098723;27;45558;-76
2023/05/01 04:10:08;;;;;;;;;35.25;32.75;;;;;12.13;88.98;101545.38;5092790;27;45330;-76
2023/05/01 04:12:34;;;;;;;;;34.50;31.75;;;;;12.15;89.00;101550.59;5093528;27;45515;-76
2023/05/01 04:14:59;;;;;;;;;36.00;34.00;;;;;11.73;89.29;101476.34;5083632;27;45318;-76
2023/05/01 04:17:24;;;;;;;;;39.25;32.75;;;;;12.12;89.84;101540.13;5086086;27;45273;-77
2023/05/01 04:19:50;;;;;;;;;43.50;34.50;;;;;12.23;89.84;101556.44;5092738;27;45316;-77
2023/05/01 04:22:15;;;;;;;;;41.50;33.75;;;;;12.21;90.44;101545.03;5096521;27;45291;-76
2023/05/01 04:24:41;;;;;;;;;38.00;34.25;;;;;12.24;90.08;101559.03;5095736;27;47232;-76
2023/05/01 04:27:06;;;;;;;;;40.50;32.25;;;;;12.28;88.91;101554.44;5085748;27;45388;-77
2023/05/01 04:29:32;;;;;;;;;36.25;34.00;;;;;12.29;88.87;101551.75;5099114;27;45356;-77
2023/05/01 04:31:57;;;;;;;;;35.25;33.75;;;;;12.34;90.17;101559.50;5093780;27;45791;-77
2023/05/01 04:34:22;;;;;;;;;36.25;34.25;;;;;12.34;89.19;101572.75;5094345;27;45278;-76
2023/05/01 04:36:48;;;;;;;;;33.75;32.00;;;;;12.33;90.11;101557.78;5092013;27;45243;-76
2023/05/01 04:39:14;;;;;;;;;37.25;31.50;;;;;12.29;89.47;101565.00;5085887;27;45388;-76
2023/05/01 04:41:39;;;;;;;;;48.50;36.25;;;;;12.25;89.38;101542.19;5096861;27;45340;-76
2023/05/01 04:44:04;;;;;;;;;40.50;36.25;;;;;12.39;90.32;101568.13;5088880;27;47067;-76
2023/05/01 04:46:30;;;;;;;;;34.75;31.75;;;;;12.41;90.26;101563.63;5086049;27;45377;-76
2023/05/01 04:48:55;;;;;;;;;44.75;36.25;;;;;12.43;89.28;101569.75;5089361;27;45396;-75
2023/05/01 04:51:21;;;;;;;;;41.00;32.25;;;;;12.45;89.76;101570.53;5085638;27;45313;-76
2023/05/01 04:53:47;;;;;;;;;46.00;36.75;;;;;12.47;90.07;101564.22;5086625;27;46484;-77
2023/05/01 04:56:12;;;;;;;;;49.00;37.50;;;;;12.38;90.28;101547.84;5095291;27;45245;-76
2023/05/01 04:58:37;;;;;;;;;41.00;36.50;;;;;12.53;90.74;101571.06;5086184;27;46277;-76
2023/05/01 05:01:03;;;;;;;;;47.50;38.50;;;;;12.54;90.66;101572.78;5084890;27;45575;-76
2023/05/01 05:03:28;;;;;;;;;44.75;37.50;;;;;12.57;90.18;101569.13;5083556;27;45242;-77
2023/05/01 05:05:53;;;;;;;;;48.75;39.50;;;;;12.59;90.11;101569.94;5093186;27;45269;-77
2023/05/01 05:08:19;;;;;;;;;42.75;37.50;;;;;12.61;90.25;101570.72;5094324;27;45261;-77
2023/05/01 05:10:44;;;;;;;;;45.00;38.50;;;;;12.60;90.87;101569.03;5092491;27;45446;-77
2023/05/01 05:13:10;;;;;;;;;48.00;37.75;;;;;12.64;90.61;101586.50;5081977;27;47524;-77
2023/05/01 05:15:35;;;;;;;;;52.25;39.25;;;;;12.64;90.80;101586.50;5087496;27;45414;-77
2023/05/01 05:18:00;;;;;;;;;47.50;41.00;;;;;12.61;91.56;101576.91;5085846;27;45617;-77
2023/05/01 05:20:26;;;;;;;;;52.00;40.00;;;;;12.65;89.65;101586.47;5098505;27;45503;-77
2023/05/01 05:22:51;;;;;;;;;47.75;40.00;;;;;12.65;90.28;101581.16;5085572;27;48005;-77
2023/05/01 05:25:17;;;;;;;;;47.25;38.75;;;;;12.52;90.41;101561.38;5087215;27;45620;-76
2023/05/01 05:27:42;;;;;;;;;49.50;39.00;;;;;12.70;90.48;101579.16;5085726;27;45424;-76
2023/05/01 05:30:09;;;;;;;;;44.50;39.50;;;;;12.71;88.46;101593.28;5085501;27;45418;-76
2023/05/01 05:32:34;;;;;;;;;52.00;39.50;;;;;12.74;89.11;101594.00;5095059;27;46189;-76
2023/05/01 05:35:00;;;;;;;;;44.75;38.75;;;;;12.76;89.68;101594.81;5085478;27;45357;-75
2023/05/01 05:37:25;;;;;;;;;48.75;41.00;;;;;12.73;90.33;101586.97;5091940;27;45382;-76
2023/05/01 05:39:51;;;;;;;;;52.75;42.25;;;;;12.80;88.65;101587.56;5097037;27;45507;-75
2023/05/01 05:42:17;;;;;;;;;52.25;41.00;;;;;12.81;89.06;101594.59;5087916;27;48083;-76
2023/05/01 05:44:42;;;;;;;;;54.75;44.75;;;;;12.82;89.36;101586.59;5088898;27;45342;-76
2023/05/01 05:47:07;;;;;;;;;54.50;42.50;;;;;12.79;88.37;101586.72;5101814;27;45308;-76
2023/05/01 05:49:33;;;;;;;;;54.50;42.75;;;;;12.86;88.20;101595.28;5093228;27;45180;-76
2023/05/01 05:51:58;;;;;;;;;55.50;42.25;;;;;12.81;88.21;101594.59;5095698;27;48654;-76
2023/05/01 05:54:23;;;;;;;;;52.25;42.25;;;;;12.88;88.10;101598.72;5096467;27;45349;-76
2023/05/01 05:56:49;;;;;;;;;59.25;44.00;;;;;12.91;89.41;101596.81;5092074;27;45246;-76
2023/05/01 05:59:14;;;;;;;;;51.75;43.75;;;;;12.96;89.01;101592.13;5099816;27;45490;-76
2023/05/01 06:01:41;;;;;;;;;60.00;44.50;;;;;13.03;90.73;101598.03;5094154;27;45972;-76
2023/05/01 06:04:07;;;;;;;;;56.25;45.00;;;;;13.06;89.42;101590.81;5091066;27;45522;-77
2023/05/01 06:06:33;;;;;;;;;54.00;43.25;;;;;13.13;89.58;101588.75;5098411;27;45258;-76
2023/05/01 06:08:59;;;;;;;;;58.50;45.75;;;;;13.14;87.67;101587.84;5083730;27;45308;-76
2023/05/01 06:11:24;;;;;;;;;56.00;43.25;;;;;12.94;88.10;101548.00;5087817;27;46304;-76
2023/05/01 06:13:50;;;;;;;;;52.75;43.50;;;;;13.19;88.50;101590.28;5085666;27;45314;-76
2023/05/01 06:16:15;;;;;;;;;57.75;46.25;;;;;13.24;87.59;101591.81;5084952;27;45425;-76
2023/05/01 06:18:41;;;;;;;;;55.75;43.00;;;;;13.29;88.58;101592.44;5087218;27;45236;-77
2023/05/01 06:21:06;;;;;;;;;58.00;45.50;;;;;13.30;88.73;101599.50;5094289;27;45848;-76
2023/05/01 06:23:32;;;;;;;;;58.50;47.25;;;;;13.33;87.34;101606.44;5088606;27;45288;-76
2023/05/01 06:25:58;;;;;;;;;61.00;46.50;;;;;13.29;86.48;101594.22;5097030;27;45242;-75
2023/05/01 06:28:24;;;;;;;;;56.75;46.25;;;;;13.29;87.55;101604.88;5092839;27;45551;-76
2023/05/01 06:30:49;;;;;;;;;51.00;43.00;;;;;12.87;87.88;101539.44;5086313;27;45789;-75
2023/05/01 06:33:15;;;;;;;;;58.00;48.00;;;;;13.25;87.63;101596.16;5101048;27;45397;-76
2023/05/01 06:35:40;;;;;;;;;56.75;46.75;;;;;13.24;88.56;101602.44;5085505;27;45299;-76
2023/05/01 06:38:05;;;;;;;;;54.25;42.25;;;;;13.25;87.58;101616.59;5083981;27;45253;-75
2023/05/01 06:40:33;;;;;;;;;51.75;43.75;;;;;13.27;86.60;101609.41;5089466;27;45352;-75
2023/05/01 06:42:59;;;;;;;;;56.00;47.25;;;;;13.36;87.23;101609.84;5098986;27;45361;-76
2023/05/01 06:45:25;;;;;;;;;61.25;44.75;;;;;13.46;86.18;101600.50;5099758;27;45378;-76
2023/05/01 06:47:50;;;;;;;;;57.25;44.25;;;;;13.56;85.84;101611.56;5099340;27;45505;-76
2023/05/01 06:50:15;;;;;;;;;59.25;47.00;;;;;13.70;85.70;101613.59;5091236;27;46953;-76
2023/05/01 06:52:41;;;;;;;;;60.00;44.00;;;;;13.73;84.07;101606.34;5091077;27;45404;-76
2023/05/01 06:55:07;;;;;;;;;54.25;43.50;;;;;13.87;84.16;101614.50;5096732;27;45384;-76
2023/05/01 06:57:32;;;;;;;;;54.75;43.00;;;;;13.95;83.41;101620.31;5098201;27;45321;-76
2023/05/01 06:59:57;;;;;;;;;55.00;44.25;;;;;13.86;84.23;101594.19;5092762;27;45483;-76
2023/05/01 07:02:23;;;;;;;;;52.50;42.25;;;;;14.12;82.95;101615.97;5080636;27;45317;-76
2023/05/01 07:04:48;;;;;;;;;58.50;48.25;;;;;14.22;83.36;101607.47;5095528;27;45542;-77
2023/05/01 07:07:13;;;;;;;;;54.00;44.00;;;;;14.38;84.86;101620.91;5082590;27;45427;-75
2023/05/01 07:09:40;;;;;;;;;51.50;40.25;;;;;14.43;82.34;101621.56;5099037;27;45387;-75
2023/05/01 07:12:05;;;;;;;;;55.00;40.25;;;;;14.66;82.92;101623.06;5091580;27;45411;-75
2023/05/01 07:14:31;;;;;;;;;51.00;40.75;;;;;14.85;80.54;101629.16;5088966;27;45447;-75
2023/05/01 07:16:56;;;;;;;;;48.75;37.75;;;;;14.88;79.73;101624.53;5089990;27;45348;-75
2023/05/01 07:19:21;;;;;;;;;45.50;36.25;;;;;14.90;80.73;101622.66;5087987;27;45716;-75
2023/05/01 07:21:47;;;;;;;;;42.00;37.50;;;;;14.90;79.48;101627.13;5088871;27;45761;-75
2023/05/01 07:24:12;;;;;;;;;40.75;34.75;;;;;14.90;80.21;101625.31;5085719;27;45288;-75
2023/05/01 07:26:38;;;;;;;;;37.75;34.50;;;;;14.90;80.13;101633.31;5090343;27;45393;-75
2023/05/01 07:29:04;;;;;;;;;42.00;34.25;;;;;14.82;79.55;101630.16;5088315;27;45527;-74
2023/05/01 07:31:29;;;;;;;;;31.00;29.50;;;;;14.80;78.89;101633.84;5090406;27;45272;-75
2023/05/01 07:33:55;;;;;;;;;35.25;31.00;;;;;14.60;78.91;101608.25;5089343;27;45362;-75
2023/05/01 07:36:21;;;;;;;;;29.00;26.33;;;;;14.72;79.23;101639.59;5090704;27;45634;-75
2023/05/01 07:38:47;;;;;;;;;30.67;29.00;;;;;14.74;79.46;101643.03;5086949;27;45375;-75
2023/05/01 07:41:12;;;;;;;;;28.00;27.00;;;;;14.72;78.80;101628.06;5089503;27;45256;-75
2023/05/01 07:43:38;;;;;;;;;29.33;26.00;;;;;14.57;77.90;101603.06;5100814;27;45423;-75
2023/05/01 07:46:04;;;;;;;;;23.67;21.67;;;;;14.88;78.53;101642.31;5089898;27;45433;-76
2023/05/01 07:48:30;;;;;;;;;21.67;20.33;;;;;14.93;79.71;101637.59;5093255;27;46464;-75
2023/05/01 07:50:56;;;;;;;;;25.33;20.67;;;;;15.01;77.86;101646.06;5095102;27;45354;-75
2023/05/01 07:53:22;;;;;;;;;18.67;18.33;;;;;14.98;77.64;101654.22;5088989;27;45376;-75
2023/05/01 07:55:48;;;;;;;;;21.67;21.00;;;;;14.92;77.34;101642.06;5093322;27;45438;-76
2023/05/01 07:58:13;;;;;;;;;20.67;19.00;;;;;14.88;78.12;101643.19;5096635;27;46138;-75
2023/05/01 08:00:39;;;;;;;;;20.00;17.00;;;;;14.91;78.51;101647.50;5085472;27;45682;-76
2023/05/01 08:03:04;;;;;;;;;19.67;19.67;;;;;14.91;77.82;101639.50;5094745;27;45467;-77
2023/05/01 08:05:30;;;;;;;;;26.33;20.33;;;;;14.93;78.16;101646.47;5089656;27;45231;-67
2023/05/01 08:07:56;;;;;;;;;21.67;19.33;;;;;14.96;77.97;101640.97;5087115;27;45473;-68
2023/05/01 08:10:21;;;;;;;;;23.67;19.67;;;;;15.00;77.56;101649.66;5090336;27;45433;-67
2023/05/01 08:12:47;;;;;;;;;25.67;21.33;;;;;15.00;78.39;101642.53;5090928;27;45393;-67
2023/05/01 08:15:12;;;;;;;;;21.00;18.33;;;;;15.05;79.79;101658.31;5090105;27;45262;-67
2023/05/01 08:17:37;;;;;;;;;29.00;21.67;;;;;15.03;78.73;101649.50;5096592;27;46075;-67
2023/05/01 08:20:03;;;;;;;;;25.33;24.67;;;;;14.97;77.99;101644.50;5095975;27;45475;-68
2023/05/01 08:22:28;;;;;;;;;29.67;26.00;;;;;15.00;77.51;101644.34;5094407;27;45438;-68
2023/05/01 08:24:54;;;;;;;;;32.00;28.67;;;;;14.99;79.18;101646.13;5080437;27;45223;-68
2023/05/01 08:27:20;;;;;;;;;29.67;27.00;;;;;15.00;77.70;101652.34;5098762;27;45313;-68
2023/05/01 08:29:45;;;;;;;;;32.00;27.67;;;;;15.05;79.32;101655.63;5099352;27;45336;-68
2023/05/01 08:32:11;;;;;;;;;31.00;29.00;;;;;15.06;79.25;101660.00;5090098;27;45227;-67
2023/05/01 08:34:36;;;;;;;;;29.67;28.67;;;;;15.06;77.90;101655.53;5096335;27;45243;-68
2023/05/01 08:37:02;;;;;;;;;31.00;28.33;;;;;15.01;78.45;101657.59;5086660;27;46027;-68
2023/05/01 08:39:27;;;;;;;;;32.33;29.33;;;;;15.03;79.07;101652.16;5086011;27;45444;-67
2023/05/01 08:41:52;;;;;;;;;28.33;25.00;;;;;15.11;78.61;101664.16;5089918;27;45979;-68
2023/05/01 08:44:19;;;;;;;;;24.33;22.33;;;;;15.12;79.02;101663.22;5092442;27;45526;-68
2023/05/01 08:47:23;;;;;;;;;27.00;23.33;;;;;15.20;78.63;101657.47;5099948;27;45426;-68
2023/05/01 08:49:50;;;;;;;;;24.33;22.33;;;;;15.18;78.90;101654.06;5050691;28;45531;-68
2023/05/01 08:52:19;;;;;;;;;32.67;20.67;;;;;15.29;79.60;101666.78;5049839;28;45437;-68
2023/05/01 08:54:46;;;;;;;;;19.33;17.00;;;;;15.25;77.69;101659.91;5078041;27;45366;-69
2023/05/01 08:57:12;;;;;;;;;23.67;21.33;;;;;15.27;78.28;101674.00;5095610;27;45509;-68
2023/05/01 08:59:39;;;;;;;;;21.67;20.67;;;;;15.16;78.06;101673.69;5102037;27;45337;-68
2023/05/01 09:02:08;;;;;;;;;21.33;20.00;;;;;15.19;78.96;101682.41;5085169;27;45364;-68
2023/05/01 09:04:36;;;;;;;;;23.00;19.33;;;;;14.94;78.33;101637.53;5100442;27;45282;-68
2023/05/01 09:07:02;;;;;;;;;20.67;15.67;;;;;15.13;79.47;101682.72;5095978;27;46455;-68
2023/05/01 09:09:29;;;;;;;;;23.67;21.00;;;;;15.09;79.01;101679.34;5089362;27;45480;-69
2023/05/01 09:12:16;;;;;;;;;18.33;16.00;;;;;15.08;79.42;101682.94;5085414;27;45380;-69
2023/05/01 09:14:42;;;;;;;;;19.67;19.00;;;;;15.08;80.02;101680.28;5091243;27;45457;-68
2023/05/01 09:17:08;;;;;;;;;18.33;18.33;;;;;15.06;79.75;101678.66;5096361;27;46092;-68
2023/05/01 09:19:33;;;;;;;;;16.00;16.00;;;;;14.93;80.29;101667.78;5083486;27;45401;-68
2023/05/01 09:21:59;;;;;;;;;14.67;14.33;;;;;14.94;80.51;101682.81;5092480;27;45428;-68
2023/05/01 09:24:24;;;;;;;;;16.67;14.33;;;;;14.88;81.05;101682.28;5091971;27;45313;-68
2023/05/01 09:26:50;;;;;;;;;18.00;17.67;;;;;14.91;82.83;101682.97;5093254;27;46367;-68
2023/05/01 09:29:51;;;;;;;;;15.33;15.00;;;;;14.92;80.09;101691.84;5095639;27;45530;-69
2023/05/01 09:32:26;;;;;;;;;17.67;16.00;;;;;14.96;81.87;101680.06;5058706;28;45508;-68
2023/05/01 09:34:53;;;;;;;;;18.67;13.33;;;;;15.02;81.83;101685.94;5078546;27;46843;-68
2023/05/01 09:37:31;;;;;;;;;18.00;15.33;;;;;15.13;82.32;101678.25;5096073;27;45396;-68
2023/05/01 09:40:06;;;;;;;;;17.00;16.50;;;;;15.28;80.75;101683.75;5092844;27;45757;-68
2023/05/01 09:42:33;;;;;;;;;17.00;13.33;;;;;15.36;80.71;101681.50;5086984;27;45236;-68
2023/05/01 09:45:05;;;;;;;;;13.67;13.00;;;;;15.44;80.18;101674.84;5092487;27;45522;-68
2023/05/01 09:47:32;;;;;;;;;14.67;11.33;;;;;15.58;79.15;101683.00;5092533;27;45805;-69
2023/05/01 09:49:58;;;;;;;;;10.33;7.67;;;;;15.67;77.07;101681.66;5091336;27;45782;-68
2023/05/01 09:52:28;;;;;;;;;11.67;8.33;;;;;15.69;76.01;101684.22;5089295;27;45601;-69
2023/05/01 09:55:16;;;;;;;;;5.33;5.00;;;;;15.68;76.99;101685.16;5097372;27;45486;-69
2023/05/01 09:57:44;;;;;;;;;7.67;7.67;;;;;15.59;77.55;101673.19;5089952;27;45407;-69
2023/05/01 10:00:11;;;;;;;;;8.33;8.00;;;;;15.57;76.98;101691.09;5095226;27;45246;-68
2023/05/01 10:02:38;;;;;;;;;12.00;10.00;;;;;15.55;78.17;101690.28;5091700;27;45566;-69
2023/05/01 10:05:04;;;;;;;;;11.00;10.00;;;;;15.58;78.37;101692.78;5090548;27;45524;-69
2023/05/01 10:07:30;;;;;;;;;13.67;10.00;;;;;15.61;78.91;101697.94;5090789;27;45468;-68
2023/05/01 10:09:56;;;;;;;;;10.00;9.00;;;;;15.74;79.28;101684.84;5086585;27;45291;-68
2023/05/01 10:12:25;;;;;;;;;13.67;11.67;;;;;15.91;78.30;101685.63;5091790;27;45606;-68
2023/05/01 10:14:56;;;;;;;;;11.67;11.00;;;;;16.09;78.71;101686.41;5088965;27;45415;-69
2023/05/01 10:17:22;;;;;;;;;14.67;12.67;;;;;16.21;77.70;101679.50;5091542;27;48090;-68
2023/05/01 10:19:49;;;;;;;;;19.67;12.00;;;;;16.32;77.68;101690.47;5084651;27;45462;-69
2023/05/01 10:22:15;;;;;;;;;18.67;15.33;;;;;16.40;76.35;101686.41;5090675;27;45424;-68
2023/05/01 10:24:42;;;;;;;;;22.33;18.33;;;;;16.30;75.93;101653.16;5090497;27;45551;-68
2023/05/01 10:27:09;;;;;;;;;17.00;16.67;;;;;16.47;75.51;101687.78;5087612;27;45578;-69
2023/05/01 10:29:37;;;;;;;;;17.67;16.67;;;;;16.42;77.15;101684.50;5091065;27;45452;-69
2023/05/01 10:32:06;;;;;;;;;14.00;13.67;;;;;16.48;75.79;101686.84;5092331;27;45438;-69
2023/05/01 10:34:36;;;;;;;;;13.00;13.00;;;;;16.42;75.90;101683.66;5089166;27;45526;-68
2023/05/01 10:37:11;;;;;;;;;12.00;12.00;;;;;16.45;76.26;101686.13;5081159;27;46150;-68
2023/05/01 10:39:37;;;;;;;;;17.00;16.33;;;;;16.43;75.87;101686.22;5099251;27;45399;-68
2023/05/01 10:42:12;;;;;;;;;14.33;13.67;;;;;16.44;77.06;101687.09;5088016;27;45464;-68
2023/05/01 10:44:38;;;;;;;;;14.33;14.33;;;;;16.49;76.50;101685.03;5096211;27;45548;-68
2023/05/01 10:47:30;;;;;;;;;15.00;14.00;;;;;16.46;76.68;101683.38;5093083;27;45928;-68
2023/05/01 10:50:08;;;;;;;;;13.00;13.00;;;;;16.50;76.70;101689.41;5098936;27;45385;-68
2023/05/01 10:53:14;;;;;;;;;15.00;15.00;;;;;16.52;76.85;101690.19;5086145;27;45408;-68
2023/05/01 10:55:44;;;;;;;;;18.00;15.00;;;;;16.63;76.35;101680.63;5084736;27;45468;-68
2023/05/01 10:58:11;;;;;;;;;18.00;15.00;;;;;16.75;75.11;101671.03;5092705;27;45343;-68
2023/05/01 11:00:36;;;;;;;;;15.33;14.67;;;;;16.98;75.68;101661.66;5080469;27;45382;-68
2023/05/01 11:03:20;;;;;;;;;11.00;10.00;;;;;17.43;74.63;101672.22;5093081;27;45321;-68
2023/05/01 11:06:03;;;;;;;;;14.00;13.00;;;;;17.62;72.93;101664.78;5086251;27;45475;-68
2023/05/01 11:08:30;;;;;;;;;17.00;13.67;;;;;17.83;72.77;101662.59;5097897;27;45350;-67
2023/05/01 11:10:56;;;;;;;;;15.33;12.67;;;;;18.02;71.70;101667.63;5088445;27;45239;-68